Time;durP1;ratioP1;P1;durP2;ratioP2;P2;SDS_P1;SDS_P2;PMS_P1;PMS_P2;Temp;Humidity;BMP_temperature;BMP_pressure;BME280_temperature;BME280_humidity;BME280_pressure;Samples;Min_cycle;Max_cycle;Signal;HPM_P1;HPM_P2
2021/12/02 00:01:09;;;;;;;8.82;5.07;;;;;;;8.49;54.75;100029.09;4964683;28;20554;-67
2021/12/02 00:03:36;;;;;;;10.30;6.25;;;;;;;8.36;55.28;100009.88;4968081;28;20122;-67
2021/12/02 00:06:03;;;;;;;8.40;5.50;;;;;;;8.15;55.42;99989.78;4953926;28;20047;-66
2021/12/02 00:08:29;;;;;;;11.38;6.63;;;;;;;8.28;55.62;99999.38;4965439;28;20042;-67
2021/12/02 00:10:55;;;;;;;7.43;5.10;;;;;;;8.31;55.27;100030.78;4972072;28;20051;-66
2021/12/02 00:13:24;;;;;;;7.30;5.40;;;;;;;8.20;55.50;100003.75;4967703;28;20058;-67
2021/12/02 00:15:56;;;;;;;9.00;6.10;;;;;;;8.41;55.32;100042.16;4965551;28;20062;-66
2021/12/02 00:21:05;;;;;;;7.72;4.40;;;;;;;7.89;56.27;100008.84;4967642;28;20034;-67
2021/12/02 00:23:40;;;;;;;;;;;;;;;8.03;56.59;100042.88;4962449;28;20047;-67
2021/12/02 00:26:16;;;;;;;7.68;5.53;;;;;;;7.90;56.44;100028.00;4967902;28;19922;-66
2021/12/02 00:28:42;;;;;;;8.18;5.03;;;;;;;8.03;56.13;100032.44;4969554;28;20053;-66
2021/12/02 00:31:16;;;;;;;7.53;4.97;;;;;;;8.28;55.50;100045.56;4957289;28;20047;-66
2021/12/02 00:33:45;;;;;;;8.02;5.63;;;;;;;8.37;55.14;100046.47;4962453;28;20043;-64
2021/12/02 00:36:13;;;;;;;7.30;4.97;;;;;;;8.20;55.54;100051.66;4966994;28;20039;-66
2021/12/02 00:38:41;;;;;;;8.15;4.75;;;;;;;8.11;55.88;100056.84;4958754;28;20027;-68
2021/12/02 00:41:12;;;;;;;6.80;4.18;;;;;;;8.18;55.71;100040.31;4953530;28;20051;-68
2021/12/02 00:43:39;;;;;;;7.03;5.03;;;;;;;7.86;55.86;99998.38;4973150;28;20050;-67
2021/12/02 00:46:11;;;;;;;9.20;5.70;;;;;;;8.12;55.34;100027.22;4964385;28;20055;-67
2021/12/02 00:48:37;;;;;;;9.27;4.85;;;;;;;7.27;57.35;100004.16;4958565;28;20126;-67
2021/12/02 00:51:04;;;;;;;7.07;3.97;;;;;;;7.68;56.69;100004.41;4960196;28;20085;-65
2021/12/02 00:53:33;;;;;;;8.63;5.20;;;;;;;7.68;56.91;100032.22;4953859;28;20043;-68
2021/12/02 00:56:02;;;;;;;8.90;4.97;;;;;;;7.48;57.56;100048.66;4966115;28;20055;-66
2021/12/02 00:58:30;;;;;;;9.07;4.28;;;;;;;7.37;57.98;100042.47;4961932;28;20150;-67
2021/12/02 01:00:56;;;;;;;10.98;5.53;;;;;;;7.79;56.84;100034.03;4962038;28;20070;-67
2021/12/02 01:03:24;;;;;;;7.93;5.00;;;;;;;7.80;55.71;100032.31;4962281;28;20408;-68
2021/12/02 01:05:51;;;;;;;8.73;5.22;;;;;;;7.83;55.76;100009.69;4965453;28;20066;-66
2021/12/02 01:08:17;;;;;;;9.65;4.78;;;;;;;8.21;55.50;100039.44;4965392;28;20094;-67
2021/12/02 01:10:43;;;;;;;8.18;4.43;;;;;;;8.13;55.62;100031.59;4961693;28;20133;-66
2021/12/02 01:13:09;;;;;;;8.07;4.88;;;;;;;7.91;55.91;100028.00;4954214;28;20055;-67
2021/12/02 01:15:35;;;;;;;10.63;5.03;;;;;;;7.93;56.22;100033.22;4986833;28;20054;-67
2021/12/02 01:18:00;;;;;;;7.38;3.97;;;;;;;7.63;56.73;100037.41;4958970;28;20058;-67
2021/12/02 01:20:26;;;;;;;8.75;5.63;;;;;;;7.92;56.59;100041.94;4964624;28;20069;-67
2021/12/02 01:22:53;;;;;;;15.48;6.15;;;;;;;7.98;56.10;100044.56;4951692;28;20047;-66
2021/12/02 01:25:20;;;;;;;8.82;5.10;;;;;;;7.94;55.77;100045.44;4995708;28;20474;-67
2021/12/02 01:27:49;;;;;;;8.27;4.90;;;;;;;7.91;55.01;100011.44;4965737;28;20134;-66
2021/12/02 01:30:15;;;;;;;8.13;4.85;;;;;;;8.37;54.70;100037.75;4962100;28;20470;-66
2021/12/02 01:32:41;;;;;;;8.57;5.00;;;;;;;8.14;55.29;100029.84;4966798;28;20049;-66
2021/12/02 01:35:07;;;;;;;8.98;4.30;;;;;;;7.87;55.37;100005.34;4963946;28;20046;-66
2021/12/02 01:37:33;;;;;;;6.97;4.32;;;;;;;8.03;55.20;100021.97;4965331;28;20046;-68
2021/12/02 01:39:59;;;;;;;7.22;4.53;;;;;;;8.09;54.99;100032.44;4966004;28;20054;-65
2021/12/02 01:42:29;;;;;;;5.82;3.92;;;;;;;8.04;54.92;100010.66;4961553;28;20678;-66
2021/12/02 01:44:57;;;;;;;12.50;4.55;;;;;;;7.94;54.78;99988.84;4959249;28;20491;-67
2021/12/02 01:47:25;;;;;;;7.43;4.45;;;;;;;7.71;54.97;99985.25;4962228;28;20086;-65
2021/12/02 01:49:54;;;;;;;9.63;4.93;;;;;;;7.94;55.32;100006.25;4950908;28;20039;-67
2021/12/02 01:52:26;;;;;;;6.35;4.13;;;;;;;7.86;54.95;100003.59;4955166;28;20570;-67
2021/12/02 01:55:07;;;;;;;7.65;4.28;;;;;;;8.23;54.11;100015.06;4963704;28;20098;-67
2021/12/02 01:57:35;;;;;;;7.78;4.18;;;;;;;8.47;53.24;100002.94;4955349;28;20047;-67
2021/12/02 02:00:15;;;;;;;8.23;4.50;;;;;;;8.46;53.74;100022.13;4966766;28;20046;-66
2021/12/02 02:02:41;;;;;;;7.10;3.75;;;;;;;8.39;53.54;99982.00;4984713;28;20189;-65
2021/12/02 02:05:13;;;;;;;6.60;3.83;;;;;;;8.74;52.73;100015.19;4973464;28;20050;-66
2021/12/02 02:08:02;;;;;;;8.18;4.13;;;;;;;8.17;54.37;100022.00;4969171;28;20050;-67
2021/12/02 02:10:31;;;;;;;8.68;5.00;;;;;;;8.77;52.76;100023.03;4964257;28;20035;-67
2021/12/02 02:12:59;;;;;;;8.88;4.65;;;;;;;8.66;52.57;100006.47;4966601;28;20051;-65
2021/12/02 02:15:28;;;;;;;8.25;4.82;;;;;;;8.66;52.57;100017.81;4965250;28;20110;-67
2021/12/02 02:21:03;;;;;;;8.57;5.05;;;;;;;8.41;52.96;100014.28;4965187;28;20050;-66
2021/12/02 02:23:35;;;;;;;10.50;4.65;;;;;;;8.65;52.95;100004.72;4969337;28;20415;-68
2021/12/02 02:26:01;;;;;;;9.90;4.68;;;;;;;8.71;52.17;99999.50;4964011;28;20055;-69
2021/12/02 02:28:28;;;;;;;5.75;3.60;;;;;;;8.50;52.88;99983.78;4963579;28;20053;-67
2021/12/02 02:30:54;;;;;;;9.27;5.78;;;;;;;8.57;52.82;99969.84;4965833;28;20515;-66
2021/12/02 02:33:20;;;;;;;7.45;3.90;;;;;;;9.14;51.70;100003.88;4969786;28;20035;-67
2021/12/02 02:35:47;;;;;;;11.30;4.68;;;;;;;8.59;52.27;99963.75;4999409;28;20068;-67
2021/12/02 02:38:14;;;;;;;11.57;5.45;;;;;;;8.62;52.44;99965.50;4963169;28;20146;-67
2021/12/02 02:40:43;;;;;;;11.00;4.68;;;;;;;8.69;52.30;99984.69;4967388;28;20055;-66
2021/12/02 02:43:59;;;;;;;8.23;4.65;;;;;;;8.94;51.79;99973.34;5029393;27;21282;-67
2021/12/02 02:46:40;;;;;;;10.73;4.63;;;;;;;8.94;51.40;99960.25;5013459;28;20079;-66
2021/12/02 02:49:12;;;;;;;8.35;5.18;;;;;;;9.19;51.23;99995.13;5007112;28;20101;-68
2021/12/02 02:51:39;;;;;;;14.95;5.18;;;;;;;9.00;51.09;99967.25;5007265;28;20548;-68
2021/12/02 02:54:08;;;;;;;9.25;5.40;;;;;;;9.23;51.42;100006.47;5009196;28;20034;-67
2021/12/02 02:56:38;;;;;;;7.20;4.65;;;;;;;8.71;52.48;99999.50;5048663;28;20061;-68
2021/12/02 03:07:24;;;;;;;9.38;4.75;;;;;;;9.08;51.32;100002.13;4972606;28;20470;-67
2021/12/02 03:17:27;;;;;;;15.88;6.47;;;;;;;9.26;51.43;99990.75;5014803;28;20045;-68
2021/12/02 03:19:53;;;;;;;14.15;6.13;;;;;;;8.92;51.78;99979.44;5019257;28;20042;-66
2021/12/02 03:22:19;;;;;;;10.10;5.00;;;;;;;8.87;52.02;99993.41;5016738;28;20034;-66
2021/12/02 03:24:44;;;;;;;9.90;5.47;;;;;;;9.20;51.50;99996.00;5008295;28;20046;-66
2021/12/02 03:27:11;;;;;;;14.02;4.95;;;;;;;9.13;51.26;99996.88;5014918;28;20871;-67
2021/12/02 03:29:37;;;;;;;7.07;4.60;;;;;;;9.12;51.34;99995.16;5017313;28;20048;-68
2021/12/02 03:32:03;;;;;;;11.27;6.20;;;;;;;9.03;51.86;100001.25;5012885;28;20050;-68
2021/12/02 03:34:28;;;;;;;10.93;6.10;;;;;;;9.11;51.36;100006.47;5018332;28;20053;-67
2021/12/02 03:36:54;;;;;;;12.48;5.65;;;;;;;8.68;51.84;99970.72;5007384;28;20120;-68
2021/12/02 03:39:20;;;;;;;9.90;6.07;;;;;;;9.05;51.97;100007.34;5011389;28;20026;-68
2021/12/02 03:41:46;;;;;;;11.15;5.50;;;;;;;9.01;52.04;100011.72;5019510;28;20170;-68
2021/12/02 03:44:12;;;;;;;12.10;5.22;;;;;;;9.00;52.00;100004.75;5017061;28;20061;-67
2021/12/02 03:46:40;;;;;;;12.93;6.82;;;;;;;8.77;51.87;100001.25;5041763;28;20466;-67
2021/12/02 03:49:06;;;;;;;10.50;5.60;;;;;;;8.76;52.45;100005.63;5016696;28;20046;-68
2021/12/02 03:51:32;;;;;;;14.40;5.32;;;;;;;8.65;52.40;99978.56;5014904;28;20054;-68
2021/12/02 03:53:57;;;;;;;9.63;5.07;;;;;;;8.49;52.45;99976.81;5011290;28;20489;-66
2021/12/02 03:56:24;;;;;;;9.77;5.47;;;;;;;8.36;53.04;99996.81;5006425;28;20049;-67
2021/12/02 03:58:50;;;;;;;7.75;5.10;;;;;;;8.78;52.56;100008.22;5007369;28;20414;-68
2021/12/02 04:01:16;;;;;;;11.85;6.57;;;;;;;8.55;52.49;99969.00;5007376;28;20050;-68
2021/12/02 04:03:43;;;;;;;10.20;6.18;;;;;;;8.23;52.73;99967.16;5006224;28;20081;-68
2021/12/02 04:06:10;;;;;;;10.05;5.95;;;;;;;8.79;52.42;100003.00;5006770;28;20041;-67
2021/12/02 04:08:57;;;;;;;12.02;5.32;;;;;;;8.66;52.76;100019.53;4997754;28;20505;-67
2021/12/02 04:16:26;;;;;;;10.27;5.68;;;;;;;9.07;51.24;100010.84;4998337;28;20062;-68
2021/12/02 04:18:52;;;;;;;11.63;6.80;;;;;;;8.75;51.84;99987.28;4994458;28;20038;-68
2021/12/02 04:21:17;;;;;;;9.75;6.50;;;;;;;8.76;51.33;99953.28;4997888;28;20059;-68
2021/12/02 04:23:43;;;;;;;12.57;6.68;;;;;;;9.23;50.99;99990.78;4997927;28;20049;-68
2021/12/02 04:26:09;;;;;;;9.68;6.43;;;;;;;9.02;50.63;99960.25;5002303;28;20045;-68
2021/12/02 04:28:35;;;;;;;9.50;7.28;;;;;;;8.92;50.81;99961.13;5005752;28;20069;-68
2021/12/02 04:31:00;;;;;;;12.48;6.72;;;;;;;9.12;50.91;99995.16;4999396;28;20127;-68
2021/12/02 04:33:26;;;;;;;13.90;6.07;;;;;;;8.97;51.56;99972.47;4997733;28;20129;-68
2021/12/02 04:35:52;;;;;;;15.23;6.03;;;;;;;8.94;51.13;99955.00;4994117;28;20042;-67
2021/12/02 04:38:19;;;;;;;16.60;6.65;;;;;;;8.96;51.50;99948.03;5003713;28;20061;-68
2021/12/02 04:40:45;;;;;;;7.65;5.20;;;;;;;8.92;51.05;99935.84;4994576;28;20528;-68
2021/12/02 04:43:10;;;;;;;11.38;5.38;;;;;;;8.99;51.07;99945.44;5000171;28;20082;-67
2021/12/02 04:45:36;;;;;;;14.85;6.97;;;;;;;9.41;50.57;99977.66;4990799;28;20073;-66
2021/12/02 04:48:01;;;;;;;7.65;5.57;;;;;;;9.22;50.71;99971.56;4998864;28;20376;-66
2021/12/02 04:50:27;;;;;;;14.85;7.00;;;;;;;9.43;50.56;99970.63;5000602;28;20053;-67
2021/12/02 04:52:53;;;;;;;19.80;7.78;;;;;;;9.40;50.77;99972.41;4994016;28;20038;-67
2021/12/02 04:57:57;;;;;;;11.85;5.35;;;;;;;9.27;51.10;99956.75;5039747;28;20640;-66
2021/12/02 05:00:23;;;;;;;9.27;6.10;;;;;;;8.56;52.33;99957.63;5002876;28;20049;-68
2021/12/02 05:02:49;;;;;;;13.10;6.93;;;;;;;8.77;52.08;99948.94;4994145;28;20052;-68
2021/12/02 05:05:14;;;;;;;8.02;5.30;;;;;;;8.62;52.36;99937.59;4999261;28;20057;-68
2021/12/02 05:07:40;;;;;;;10.43;7.05;;;;;;;8.93;51.77;99961.13;4990154;28;20425;-68
2021/12/02 05:10:06;;;;;;;11.38;6.60;;;;;;;8.89;52.50;99975.09;5001305;28;20367;-67
2021/12/02 05:12:32;;;;;;;10.88;6.15;;;;;;;8.66;52.90;99970.75;4992714;28;20049;-68
2021/12/02 05:14:58;;;;;;;13.57;7.30;;;;;;;8.83;52.87;99986.44;5002598;28;20502;-67
2021/12/02 05:17:24;;;;;;;13.05;7.40;;;;;;;8.78;52.93;99984.66;5001953;28;20060;-67
2021/12/02 05:19:49;;;;;;;13.75;8.52;;;;;;;9.03;52.40;99973.31;5002534;28;20054;-70
2021/12/02 05:22:15;;;;;;;12.52;7.05;;;;;;;8.73;52.75;99986.41;5001516;28;20041;-70
2021/12/02 05:25:58;;;;;;;11.45;7.05;;;;;;;8.95;52.30;99961.16;5026126;27;20628;-69
2021/12/02 05:28:23;;;;;;;14.70;7.88;;;;;;;9.13;51.60;99963.75;5020444;28;20064;-70
2021/12/02 05:30:49;;;;;;;12.45;8.73;;;;;;;9.25;51.51;99992.50;5013723;28;20329;-70
2021/12/02 05:33:15;;;;;;;14.32;7.88;;;;;;;9.35;50.98;100000.34;5008593;28;20033;-70
2021/12/02 05:35:40;;;;;;;11.95;6.88;;;;;;;9.08;51.21;99960.22;5022412;28;20053;-69
2021/12/02 05:38:06;;;;;;;19.35;10.00;;;;;;;9.17;51.34;99982.91;5017698;28;20061;-69
2021/12/02 05:42:10;;;;;;;13.52;6.57;;;;;;;8.51;53.21;100003.84;5053373;28;20633;-70
2021/12/02 05:44:36;;;;;;;13.70;8.52;;;;;;;8.12;54.45;99987.16;4997647;28;20477;-70
2021/12/02 05:47:01;;;;;;;13.52;8.90;;;;;;;8.10;54.18;99981.03;5001988;28;20502;-65
2021/12/02 05:49:27;;;;;;;19.02;9.85;;;;;;;7.78;55.41;100007.94;5009945;28;20050;-67
2021/12/02 05:51:53;;;;;;;15.30;8.98;;;;;;;7.93;54.88;99999.28;5018683;28;20851;-69
2021/12/02 05:54:19;;;;;;;12.50;7.82;;;;;;;8.12;54.03;99972.34;5020984;28;20076;-66
2021/12/02 05:56:45;;;;;;;14.82;8.40;;;;;;;7.99;54.74;99991.47;5023085;28;20204;-68
2021/12/02 05:59:10;;;;;;;17.67;8.73;;;;;;;7.87;54.77;99960.09;5022528;28;20856;-69
2021/12/02 06:01:40;;;;;;;13.35;7.97;;;;;;;8.04;54.69;99988.00;5022762;28;20046;-68
2021/12/02 06:04:06;;;;;;;13.15;9.40;;;;;;;7.86;55.31;99974.84;5010698;28;20053;-68
2021/12/02 06:06:32;;;;;;;17.80;8.60;;;;;;;7.82;55.41;99954.84;5022276;28;20076;-69
2021/12/02 06:08:57;;;;;;;19.73;8.35;;;;;;;8.55;54.11;99998.63;5020134;28;20149;-69
2021/12/02 06:11:23;;;;;;;21.40;9.80;;;;;;;8.19;53.70;99981.97;5021590;28;20060;-69
2021/12/02 06:13:48;;;;;;;13.43;9.57;;;;;;;8.17;54.65;100025.50;5015652;28;20124;-69
2021/12/02 06:16:15;;;;;;;17.17;9.00;;;;;;;8.22;54.30;99987.19;5020625;28;20054;-70
2021/12/02 06:18:40;;;;;;;16.42;8.25;;;;;;;8.43;53.64;100016.91;5020735;28;20137;-69
2021/12/02 06:21:06;;;;;;;11.00;8.15;;;;;;;8.83;53.11;100023.06;5022601;28;20052;-70
2021/12/02 06:23:31;;;;;;;21.75;8.85;;;;;;;8.98;53.02;100030.03;5019956;28;20043;-71
2021/12/02 06:25:57;;;;;;;12.32;8.40;;;;;;;8.81;52.69;100024.78;5018009;28;20437;-70
2021/12/02 06:28:22;;;;;;;15.80;7.55;;;;;;;8.84;52.75;100018.69;5019503;28;20132;-69
2021/12/02 06:30:48;;;;;;;11.65;8.57;;;;;;;8.81;52.35;99990.78;5020399;28;20509;-70
2021/12/02 06:33:14;;;;;;;12.60;8.63;;;;;;;9.27;52.01;100021.28;5032981;28;20478;-71
2021/12/02 06:35:40;;;;;;;24.98;8.80;;;;;;;9.18;52.41;100016.09;5020838;28;20025;-71
2021/12/02 06:38:06;;;;;;;12.68;8.45;;;;;;;9.11;52.36;100019.56;5020901;28;20060;-69
2021/12/02 06:40:34;;;;;;;15.55;9.93;;;;;;;9.03;52.18;100017.81;5020630;28;20054;-70
2021/12/02 06:43:03;;;;;;;15.00;9.07;;;;;;;8.98;53.08;99996.00;5018046;28;20061;-70
2021/12/02 06:45:29;;;;;;;16.35;8.27;;;;;;;9.05;53.28;100010.84;5006761;28;20880;-71
2021/12/02 06:47:58;;;;;;;14.57;10.02;;;;;;;9.13;53.01;100005.63;5023657;28;20057;-70
2021/12/02 06:50:25;;;;;;;21.55;9.25;;;;;;;9.06;52.78;100019.56;5008274;28;20108;-71
2021/12/02 06:52:52;;;;;;;12.85;8.90;;;;;;;8.62;53.60;100029.13;5011985;28;20073;-75
2021/12/02 06:55:18;;;;;;;11.95;8.85;;;;;;;8.44;54.08;100029.97;5007260;28;20053;-71
2021/12/02 06:57:43;;;;;;;10.38;8.65;;;;;;;9.03;53.09;100014.34;5007410;28;20056;-70
2021/12/02 07:00:12;;;;;;;25.83;10.45;;;;;;;9.46;52.38;100016.94;5004598;28;20034;-70
2021/12/02 07:02:39;;;;;;;20.88;9.85;;;;;;;9.48;51.42;99992.47;5008261;28;20034;-65
2021/12/02 07:05:07;;;;;;;14.70;8.80;;;;;;;9.66;51.03;100015.09;5006713;28;20433;-64
2021/12/02 07:07:37;;;;;;;16.73;8.18;;;;;;;9.86;50.89;100001.97;5008933;28;20056;-67
2021/12/02 07:10:08;;;;;;;14.48;8.88;;;;;;;9.59;51.02;99968.84;5006034;28;20049;-67
2021/12/02 07:12:36;;;;;;;21.65;10.07;;;;;;;8.91;52.90;99975.09;5007999;28;20045;-67
2021/12/02 07:15:07;;;;;;;14.10;8.80;;;;;;;9.49;51.72;99970.63;5008320;28;20401;-67
2021/12/02 07:17:33;;;;;;;19.38;9.55;;;;;;;9.88;50.22;99974.00;5005970;28;20050;-65
2021/12/02 07:20:00;;;;;;;13.45;8.40;;;;;;;9.43;51.63;100004.69;4999535;28;20046;-67
2021/12/02 07:22:26;;;;;;;12.45;7.57;;;;;;;9.37;51.60;100006.47;5005012;28;20112;-67
2021/12/02 07:24:51;;;;;;;21.50;9.13;;;;;;;8.80;53.16;99967.22;5007813;28;20089;-67
2021/12/02 07:27:17;;;;;;;13.95;8.95;;;;;;;9.21;52.05;99982.03;5007621;28;20116;-67
2021/12/02 07:29:42;;;;;;;16.55;9.82;;;;;;;9.19;52.97;99975.94;5007010;28;20033;-67
2021/12/02 07:32:10;;;;;;;13.20;8.43;;;;;;;10.10;50.41;100007.97;5006041;28;20056;-70
2021/12/02 07:34:40;;;;;;;12.85;9.32;;;;;;;10.34;49.74;100007.88;4998546;28;20122;-72
2021/12/02 07:37:06;;;;;;;14.38;10.10;;;;;;;10.65;48.77;99994.59;4992047;28;20044;-72
2021/12/02 07:39:32;;;;;;;10.73;7.97;;;;;;;10.83;48.89;100005.81;5005345;28;20046;-71
2021/12/02 07:41:57;;;;;;;13.23;10.10;;;;;;;10.79;48.31;99978.69;5007484;28;20053;-72
2021/12/02 07:45:59;;;;;;;14.35;9.82;;;;;;;11.01;47.75;100012.69;5036214;28;20609;-72
2021/12/02 07:48:26;;;;;;;20.58;10.02;;;;;;;10.88;47.65;99993.50;4999312;28;20054;-73
2021/12/02 07:50:54;;;;;;;17.20;8.93;;;;;;;11.19;47.53;100010.75;4991782;28;20043;-73
2021/12/02 07:53:20;;;;;;;21.63;12.95;;;;;;;11.29;47.45;100013.31;4992419;28;20057;-73
2021/12/02 07:55:51;;;;;;;24.27;8.75;;;;;;;11.10;46.98;99984.59;4992956;28;20050;-72
2021/12/02 07:58:16;;;;;;;18.10;7.82;;;;;;;11.62;46.05;100012.94;5002441;28;20078;-73
2021/12/02 08:00:42;;;;;;;17.42;7.40;;;;;;;11.72;45.11;100003.19;4995172;28;20827;-73
2021/12/02 08:03:10;;;;;;;15.18;8.40;;;;;;;11.19;46.54;100020.38;4999481;28;20403;-73
2021/12/02 08:05:35;;;;;;;12.32;7.97;;;;;;;11.25;46.53;99986.19;4990388;28;20233;-73
2021/12/02 08:08:01;;;;;;;16.83;8.63;;;;;;;10.89;47.77;99990.88;5003197;28;20113;-73
2021/12/02 08:10:28;;;;;;;15.23;10.30;;;;;;;10.73;48.18;100024.25;4998294;28;20050;-73
2021/12/02 08:12:54;;;;;;;17.10;10.23;;;;;;;10.92;48.22;100026.75;5000923;28;20486;-72
2021/12/02 08:15:25;;;;;;;13.85;7.68;;;;;;;10.98;47.77;100021.47;5003808;28;20041;-71
2021/12/02 08:17:52;;;;;;;16.10;8.80;;;;;;;11.59;47.38;100020.00;4999380;28;20039;-71
2021/12/02 08:20:19;;;;;;;17.25;8.57;;;;;;;11.60;46.62;100012.09;5005667;28;20406;-72
2021/12/02 08:22:45;;;;;;;12.60;8.45;;;;;;;11.79;45.68;100011.91;5002184;28;20193;-71
2021/12/02 08:25:11;;;;;;;13.65;9.15;;;;;;;11.38;46.08;100021.09;5000872;28;20126;-66
2021/12/02 08:27:37;;;;;;;24.83;8.43;;;;;;;11.00;48.03;100019.66;5000489;28;20478;-68
2021/12/02 08:30:06;;;;;;;12.38;7.72;;;;;;;11.09;47.29;100021.34;4998460;28;20037;-68
2021/12/02 08:32:31;;;;;;;12.02;7.63;;;;;;;11.30;47.22;99994.03;4999513;28;20108;-68
2021/12/02 08:34:59;;;;;;;20.63;8.77;;;;;;;11.23;46.83;99982.69;5001496;28;20057;-67
2021/12/02 08:37:27;;;;;;;14.25;7.82;;;;;;;11.94;46.24;100029.28;4998499;28;20061;-68
2021/12/02 08:39:54;;;;;;;22.65;9.05;;;;;;;11.99;44.75;100022.22;5000313;28;20129;-68
2021/12/02 08:42:24;;;;;;;19.42;10.20;;;;;;;11.95;45.40;100013.50;4999544;28;20038;-67
2021/12/02 08:44:50;;;;;;;15.90;8.27;;;;;;;11.64;45.32;100020.84;5000981;28;20062;-68
2021/12/02 08:47:16;;;;;;;16.27;9.43;;;;;;;11.73;46.03;100020.72;4987165;28;20105;-67
2021/12/02 08:49:41;;;;;;;25.15;9.45;;;;;;;11.98;45.70;100031.84;4998680;28;20073;-68
2021/12/02 08:52:07;;;;;;;17.35;9.02;;;;;;;12.41;45.29;100031.31;4994655;28;20051;-66
2021/12/02 08:54:33;;;;;;;21.30;9.20;;;;;;;12.14;44.92;100016.75;5015037;28;20065;-68
2021/12/02 08:58:00;;;;;;;16.77;9.45;;;;;;;12.65;43.32;99995.88;5047194;28;20909;-67
2021/12/02 09:00:33;;;;;;;17.15;8.25;;;;;;;13.14;43.27;100009.16;5008867;28;20129;-67
2021/12/02 09:02:59;;;;;;;12.13;8.52;;;;;;;13.00;42.78;99969.88;5018363;28;20033;-68
2021/12/02 09:05:25;;;;;;;21.33;11.15;;;;;;;12.10;44.62;99998.41;5021996;28;20089;-68
2021/12/02 09:07:51;;;;;;;16.38;11.18;;;;;;;12.37;44.52;99994.53;5024108;28;20524;-67
2021/12/02 09:10:17;;;;;;;28.02;12.88;;;;;;;12.72;44.04;99990.53;5020799;28;20146;-67
2021/12/02 09:12:44;;;;;;;23.77;11.23;;;;;;;12.92;43.98;99983.16;5021001;28;20119;-67
2021/12/02 09:15:58;;;;;;;10.40;8.55;;;;;;;12.71;44.90;99965.06;5106685;27;20619;-68
2021/12/02 09:18:23;;;;;;;10.25;8.35;;;;;;;12.86;44.80;99970.09;5059494;28;20036;-67
2021/12/02 09:20:50;;;;;;;13.18;8.73;;;;;;;13.35;42.82;99958.75;5051808;28;20512;-66
2021/12/02 09:23:15;;;;;;;19.08;9.52;;;;;;;13.33;42.84;99957.03;5061502;28;20630;-67
2021/12/02 09:25:41;;;;;;;13.95;8.73;;;;;;;13.58;41.93;99960.03;5053282;28;20045;-66
2021/12/02 09:28:07;;;;;;;12.45;8.00;;;;;;;12.95;42.65;99916.41;5060407;28;20048;-67
2021/12/02 09:30:33;;;;;;;11.77;8.35;;;;;;;13.25;42.88;99958.00;5053159;28;20088;-67
2021/12/02 09:32:59;;;;;;;15.07;8.23;;;;;;;13.31;42.56;99954.41;5037550;28;20026;-67
2021/12/02 09:35:25;;;;;;;8.85;6.82;;;;;;;13.00;42.41;99949.66;5057753;28;20109;-67
2021/12/02 09:37:51;;;;;;;25.13;9.68;;;;;;;13.44;42.71;99948.03;5056690;28;20068;-68
2021/12/02 09:40:18;;;;;;;14.82;8.75;;;;;;;13.78;42.06;99936.78;5063021;28;20044;-67
2021/12/02 09:42:45;;;;;;;25.08;11.18;;;;;;;13.97;41.45;99929.34;5061202;28;20048;-65
2021/12/02 09:45:11;;;;;;;13.68;8.15;;;;;;;13.97;41.59;99939.91;5072167;28;20046;-68
2021/12/02 09:47:40;;;;;;;13.25;8.48;;;;;;;13.21;42.49;99895.72;5058548;28;20067;-68
2021/12/02 09:50:16;;;;;;;12.30;8.00;;;;;;;13.64;42.90;99929.16;5060979;28;20160;-68
2021/12/02 09:52:43;;;;;;;13.85;8.27;;;;;;;14.11;41.95;99921.13;5037502;28;20033;-67
2021/12/02 09:57:58;;;;;;;19.83;10.55;;;;;;;13.19;42.38;99889.63;5048682;28;20421;-66
2021/12/02 10:03:31;;;;;;;17.75;9.50;;;;;;;14.27;41.31;99877.66;5075192;28;20036;-67
2021/12/02 10:08:03;;;;;;;10.68;5.80;;;;;;;12.66;44.55;99892.31;5071239;27;20135;-65
2021/12/02 10:10:32;;;;;;;8.00;5.28;;;;;;;13.12;42.41;99874.81;5056613;28;20057;-67
2021/12/02 10:13:28;;;;;;;;;;;;;;;;;;;;;
2021/12/02 10:16:21;;;;;;;8.25;5.63;;;;;;;14.13;40.11;99907.00;5046244;28;20065;-67
2021/12/02 10:18:56;;;;;;;12.45;4.47;;;;;;;13.45;41.13;99899.66;5047660;28;20049;-68
2021/12/02 10:21:28;;;;;;;8.30;5.47;;;;;;;13.97;40.90;99860.78;5045744;28;20072;-66
2021/12/02 10:23:54;;;;;;;12.68;6.53;;;;;;;14.01;41.12;99886.19;5066442;28;20496;-66
2021/12/02 10:26:22;;;;;;;10.63;5.60;;;;;;;14.42;40.60;99857.97;5093127;28;20032;-68
2021/12/02 10:28:51;;;;;;;13.25;6.93;;;;;;;14.88;39.48;99888.50;5046105;28;20267;-67
2021/12/02 10:31:21;;;;;;;10.68;6.75;;;;;;;15.49;38.64;99893.88;5055544;28;20552;-67
2021/12/02 10:33:54;;;;;;;20.67;6.63;;;;;;;15.42;38.10;99902.91;5047667;28;20074;-67
2021/12/02 10:36:33;;;;;;;14.98;6.75;;;;;;;15.37;39.04;99865.16;5056958;28;20063;-68
2021/12/02 10:39:06;;;;;;;7.93;5.10;;;;;;;15.88;38.03;99866.34;5058777;28;20036;-66
2021/12/02 10:41:32;;;;;;;11.63;7.65;;;;;;;15.96;36.79;99867.81;5060595;28;20045;-68
2021/12/02 10:44:03;;;;;;;12.00;7.03;;;;;;;16.06;38.32;99876.38;5048660;28;20056;-67
2021/12/02 10:46:29;;;;;;;8.88;7.07;;;;;;;15.97;37.94;99879.28;5046896;28;20049;-73
2021/12/02 10:48:54;;;;;;;12.23;8.00;;;;;;;15.62;37.82;99847.66;5045241;28;20087;-72
2021/12/02 10:51:43;;;;;;;12.57;7.80;;;;;;;15.22;38.99;99865.56;5057080;28;20049;-72
2021/12/02 10:54:15;;;;;;;18.25;8.18;;;;;;;15.68;38.64;99833.38;5047564;28;20069;-70
2021/12/02 10:56:54;;;;;;;8.75;4.93;;;;;;;15.59;38.54;99860.09;5047054;28;20033;-73
2021/12/02 10:59:37;;;;;;;12.98;6.38;;;;;;;15.78;37.58;99837.53;5046564;28;20052;-73
2021/12/02 11:02:39;;;;;;;19.10;7.53;;;;;;;15.89;37.38;99855.69;5047433;28;20064;-72
2021/12/02 11:05:20;;;;;;;14.95;6.50;;;;;;;16.03;37.04;99828.81;5039647;28;20078;-71
2021/12/02 11:07:54;;;;;;;14.30;8.48;;;;;;;16.38;36.39;99847.97;5045976;28;20584;-72
2021/12/02 11:10:20;;;;;;;26.98;6.45;;;;;;;16.43;36.74;99851.34;5057041;28;20037;-71
2021/12/02 11:12:48;;;;;;;12.38;6.43;;;;;;;16.43;36.40;99838.94;5062975;28;20051;-73
2021/12/02 11:15:16;;;;;;;9.73;6.40;;;;;;;16.43;36.33;99849.53;5066304;28;20118;-73
2021/12/02 11:17:52;;;;;;;14.85;7.18;;;;;;;16.00;36.55;99844.78;5060413;28;20072;-73
2021/12/02 11:20:20;;;;;;;11.88;5.80;;;;;;;16.29;36.98;99829.75;5066444;28;20057;-69
2021/12/02 11:22:46;;;;;;;8.60;6.28;;;;;;;15.68;36.70;99809.56;5060457;28;20048;-70
2021/12/02 11:25:13;;;;;;;10.60;5.70;;;;;;;16.10;36.32;99837.41;5051925;28;20102;-71
2021/12/02 11:27:49;;;;;;;10.70;5.47;;;;;;;16.28;37.00;99828.88;5049285;28;20048;-72
2021/12/02 11:30:24;;;;;;;20.90;5.13;;;;;;;16.07;36.44;99827.81;5050430;28;20044;-72
2021/12/02 11:32:59;;;;;;;11.70;5.88;;;;;;;16.13;37.16;99829.38;5065075;28;20412;-72
2021/12/02 11:35:27;;;;;;;13.85;6.90;;;;;;;16.11;38.05;99802.97;5050035;28;20566;-71
2021/12/02 11:37:59;;;;;;;9.98;5.28;;;;;;;16.24;37.15;99812.22;5062983;28;20121;-72
2021/12/02 11:40:32;;;;;;;10.77;6.60;;;;;;;15.48;38.46;99780.25;5055407;28;20790;-72
2021/12/02 11:42:58;;;;;;;9.88;6.07;;;;;;;16.10;37.44;99806.50;5061672;28;20045;-66
2021/12/02 11:45:26;;;;;;;11.32;5.75;;;;;;;15.92;38.37;99792.13;5058864;28;20032;-73
2021/12/02 11:47:54;;;;;;;10.25;5.55;;;;;;;15.88;36.77;99764.03;5062776;28;20089;-72
2021/12/02 11:50:21;;;;;;;7.88;5.25;;;;;;;16.10;36.83;99784.47;5074470;28;20040;-74
2021/12/02 11:52:47;;;;;;;13.02;6.90;;;;;;;16.07;37.17;99793.41;5050906;28;20045;-71
2021/12/02 11:55:22;;;;;;;11.73;5.28;;;;;;;15.78;37.10;99799.59;5051815;28;20114;-72
2021/12/02 11:57:49;;;;;;;11.13;7.22;;;;;;;15.87;36.90;99786.09;5057343;28;20040;-73
2021/12/02 12:00:17;;;;;;;16.45;8.15;;;;;;;16.24;36.66;99791.03;5054840;28;20044;-72
2021/12/02 12:04:10;;;;;;;16.48;8.23;;;;;;;16.27;36.27;99794.50;4950026;28;20641;-72
2021/12/02 12:06:39;;;;;;;12.35;6.32;;;;;;;15.80;37.08;99766.91;4923891;28;20052;-69
2021/12/02 12:09:12;;;;;;;12.27;5.13;;;;;;;15.95;37.02;99788.50;4922418;29;20059;-70
2021/12/02 12:11:45;;;;;;;8.27;5.75;;;;;;;16.32;37.21;99779.31;4913353;29;20056;-72
2021/12/02 12:14:13;;;;;;;9.10;5.60;;;;;;;15.52;36.92;99758.06;4924765;28;20043;-72
2021/12/02 12:16:42;;;;;;;14.35;6.18;;;;;;;15.89;37.06;99784.25;4925237;29;20048;-74
2021/12/02 12:19:21;;;;;;;15.27;5.57;;;;;;;15.72;37.31;99758.34;4923665;29;20056;-72